Ragersville, Ohio
Current Conditions -  °F | °C
As of 10:08 AM on Thursday 23 Oct 2014 (Local Time) from KPHD Reporting Station
Overcast Overcast  
Wind Chill:   Ceiling: 1100
Heat Index:   Visibility: 9mi
Dew Point:   Wind: 3mph
Humidity: 86%   Direction: 350°N
Pressure: 30.21"   Gusts: NA
Location:  40.5178°N, 81.673°W
Report Text: KPHD 231408Z AUTO 35003KT 9SM OVC011 09/07 A3021 RMK AO2 CIG 008V012 T00940072
Loading
Personal Weather Stations






























Interactive Weather Map
Tropical Storm Tracking
New forecast layout! Learn more

10-Day Weather Forecast

Advertisements
Track Severe Weather on mobile